createdAt,value
2019-01-27T00:01:36.910Z,30.50
2019-01-27T00:04:08.166Z,30.40
2019-01-27T00:06:38.516Z,30.50
2019-01-27T00:09:12.068Z,30.40
2019-01-27T00:11:43.094Z,30.30
2019-01-27T00:14:14.497Z,30.40
2019-01-27T00:16:45.743Z,30.40
2019-01-27T00:19:17.143Z,30.40
2019-01-27T00:21:48.319Z,30.30
2019-01-27T00:24:19.435Z,30.30
2019-01-27T00:26:50.514Z,30.20
2019-01-27T00:29:21.410Z,30.20
2019-01-27T00:31:52.550Z,30.20
2019-01-27T00:34:24.350Z,30.20
2019-01-27T00:36:55.345Z,30.20
2019-01-27T00:39:26.322Z,30.20
2019-01-27T00:41:57.786Z,30.20
2019-01-27T00:44:28.886Z,30.10
2019-01-27T00:46:59.787Z,30.20
2019-01-27T00:49:30.456Z,30.10
2019-01-27T00:52:01.397Z,30.10
2019-01-27T00:54:33.156Z,30.10
2019-01-27T00:57:05.197Z,30.10
2019-01-27T00:59:35.866Z,30.10
2019-01-27T01:02:07.505Z,30.10
2019-01-27T01:04:39.777Z,30.00
2019-01-27T01:07:11.339Z,30.00
2019-01-27T01:09:42.851Z,30.00
2019-01-27T01:12:14.534Z,30.00
2019-01-27T01:14:45.986Z,30.00
2019-01-27T01:17:16.829Z,30.00
2019-01-27T01:19:48.274Z,30.30
2019-01-27T01:22:19.714Z,30.00
2019-01-27T01:24:51.374Z,30.00
2019-01-27T01:27:22.322Z,30.00
2019-01-27T01:29:53.411Z,30.00
2019-01-27T01:32:24.605Z,30.00
2019-01-27T01:34:55.753Z,30.00
2019-01-27T01:37:26.928Z,30.00
2019-01-27T01:39:57.983Z,30.00
2019-01-27T01:42:29.483Z,30.00
2019-01-27T01:45:00.624Z,29.90
2019-01-27T01:47:32.078Z,30.00
2019-01-27T01:50:02.916Z,30.00
2019-01-27T01:52:34.542Z,30.00
2019-01-27T01:55:06.770Z,29.90
2019-01-27T01:57:37.581Z,29.90
2019-01-27T02:00:11.355Z,29.90
2019-01-27T02:02:42.327Z,29.90
2019-01-27T02:05:13.777Z,29.90
2019-01-27T02:07:44.916Z,29.90
2019-01-27T02:10:17.827Z,29.90
2019-01-27T02:12:48.933Z,29.90
2019-01-27T02:15:59.750Z,29.90
2019-01-27T02:18:31.268Z,30.00
2019-01-27T02:21:02.727Z,29.80
2019-01-27T02:23:34.157Z,29.90
2019-01-27T02:26:05.874Z,29.80
2019-01-27T02:28:37.162Z,29.80
2019-01-27T02:31:07.854Z,29.80
2019-01-27T02:33:38.774Z,29.80
2019-01-27T02:36:09.049Z,29.80
2019-01-27T02:38:40.122Z,29.80
2019-01-27T02:41:10.454Z,29.80
2019-01-27T02:43:41.176Z,29.80
2019-01-27T02:46:11.597Z,29.80
2019-01-27T02:48:42.303Z,29.80
2019-01-27T02:51:13.814Z,29.80
2019-01-27T02:53:44.789Z,29.80
2019-01-27T02:56:15.190Z,29.80
2019-01-27T02:58:46.894Z,29.80
2019-01-27T03:01:17.316Z,29.80
2019-01-27T03:03:48.497Z,29.80
2019-01-27T03:06:32.663Z,29.80
2019-01-27T03:09:10.933Z,29.80
2019-01-27T03:11:53.506Z,29.70
2019-01-27T03:14:25.101Z,29.80
2019-01-27T03:16:56.530Z,29.80
2019-01-27T03:19:28.008Z,29.70
2019-01-27T03:21:59.155Z,29.80
2019-01-27T03:24:30.307Z,29.80
2019-01-27T03:27:01.131Z,29.80
2019-01-27T03:29:32.270Z,29.80
2019-01-27T03:32:03.493Z,29.80
2019-01-27T03:34:34.563Z,29.70
2019-01-27T03:37:06.332Z,29.70
2019-01-27T03:39:37.457Z,29.70
2019-01-27T03:42:08.471Z,29.70
2019-01-27T03:44:39.475Z,29.80
2019-01-27T03:47:10.086Z,29.80
2019-01-27T03:49:40.812Z,29.70
2019-01-27T03:52:11.162Z,29.70
2019-01-27T03:54:42.174Z,29.80
2019-01-27T03:57:12.582Z,29.80
2019-01-27T03:59:43.209Z,29.80
2019-01-27T04:02:13.554Z,29.70
2019-01-27T04:04:44.333Z,29.70
2019-01-27T04:07:14.723Z,29.70
2019-01-27T04:09:45.686Z,29.70
2019-01-27T04:12:16.802Z,29.70
2019-01-27T04:14:47.954Z,29.70
2019-01-27T04:17:19.389Z,29.70
2019-01-27T04:19:50.534Z,30.30
2019-01-27T04:22:21.680Z,29.70
2019-01-27T04:24:53.085Z,29.80
2019-01-27T04:27:24.290Z,29.80
2019-01-27T04:29:55.451Z,29.80
2019-01-27T04:32:26.566Z,29.80
2019-01-27T04:34:57.701Z,29.80
2019-01-27T04:37:28.847Z,29.80
2019-01-27T04:40:00.247Z,29.70
2019-01-27T04:42:31.443Z,29.70
2019-01-27T04:45:02.411Z,29.70
2019-01-27T04:47:33.417Z,29.70
2019-01-27T04:50:04.888Z,29.70
2019-01-27T04:52:35.712Z,29.70
2019-01-27T04:55:08.404Z,29.80
2019-01-27T04:57:39.221Z,29.70
2019-01-27T05:00:13.703Z,29.70
2019-01-27T05:02:52.150Z,29.70
2019-01-27T05:05:25.103Z,29.70
2019-01-27T05:07:55.970Z,29.70
2019-01-27T05:10:26.924Z,29.70
2019-01-27T05:12:57.878Z,29.70
2019-01-27T05:15:29.624Z,29.70
2019-01-27T05:18:00.766Z,29.70
2019-01-27T05:20:31.629Z,29.70
2019-01-27T05:23:02.749Z,29.70
2019-01-27T05:25:34.190Z,29.80
2019-01-27T05:28:05.226Z,29.70
2019-01-27T05:30:36.166Z,29.80
2019-01-27T05:33:07.572Z,29.70
2019-01-27T05:35:37.969Z,29.70
2019-01-27T05:38:08.665Z,29.80
2019-01-27T05:40:39.027Z,29.80
2019-01-27T05:43:09.748Z,29.80
2019-01-27T05:45:40.081Z,29.80
2019-01-27T05:48:10.838Z,29.80
2019-01-27T05:50:41.218Z,29.80
2019-01-27T05:53:12.171Z,29.80
2019-01-27T05:55:42.526Z,29.70
2019-01-27T05:58:13.242Z,29.70
2019-01-27T06:00:45.550Z,29.70
2019-01-27T06:03:16.190Z,29.70
2019-01-27T06:05:46.460Z,29.70
2019-01-27T06:08:17.507Z,29.80
2019-01-27T06:10:48.004Z,29.60
2019-01-27T06:13:20.412Z,29.70
2019-01-27T06:15:51.069Z,29.60
2019-01-27T06:18:22.087Z,29.70
2019-01-27T06:20:52.788Z,29.80
2019-01-27T06:23:23.746Z,29.70
2019-01-27T06:25:54.386Z,29.70
2019-01-27T06:28:25.119Z,29.70
2019-01-27T06:30:55.447Z,29.70
2019-01-27T06:33:34.981Z,29.70
2019-01-27T06:36:05.483Z,29.60
2019-01-27T06:38:36.450Z,29.60
2019-01-27T06:41:06.774Z,29.60
2019-01-27T06:43:37.503Z,29.60
2019-01-27T06:46:07.926Z,29.60
2019-01-27T06:48:38.555Z,29.60
2019-01-27T06:51:08.981Z,29.60
2019-01-27T06:53:39.678Z,29.60
2019-01-27T06:56:10.263Z,29.60
2019-01-27T06:59:18.360Z,29.60
2019-01-27T07:01:57.642Z,29.50
2019-01-27T07:04:38.429Z,29.50
2019-01-27T07:07:27.841Z,29.50
2019-01-27T07:10:32.875Z,29.60
2019-01-27T07:13:26.139Z,29.50
2019-01-27T07:16:13.668Z,29.50
2019-01-27T07:19:01.908Z,29.50
2019-01-27T07:21:51.779Z,29.40
2019-01-27T07:24:41.642Z,29.40
2019-01-27T07:27:34.043Z,29.40
2019-01-27T07:30:39.262Z,29.40
2019-01-27T07:33:28.599Z,29.50
2019-01-27T07:36:11.957Z,29.40
2019-01-27T07:39:04.057Z,29.40
2019-01-27T07:41:54.131Z,29.40
2019-01-27T07:44:43.525Z,29.40
2019-01-27T07:47:51.564Z,29.40
2019-01-27T07:50:39.586Z,29.40
2019-01-27T07:53:29.174Z,29.40
2019-01-27T07:56:18.831Z,29.90
2019-01-27T07:59:14.513Z,29.30
2019-01-27T08:01:54.295Z,29.40
2019-01-27T08:04:46.558Z,29.30
2019-01-27T08:07:40.689Z,29.30
2019-01-27T08:10:33.385Z,29.30
2019-01-27T08:13:10.661Z,29.30
2019-01-27T08:16:00.290Z,29.30
2019-01-27T08:18:58.666Z,29.30
2019-01-27T08:21:54.405Z,29.30
2019-01-27T08:24:43.190Z,29.30
2019-01-27T08:27:32.791Z,29.20
2019-01-27T08:30:22.930Z,29.20
2019-01-27T08:33:09.802Z,29.30
2019-01-27T08:35:59.141Z,29.20
2019-01-27T08:38:50.886Z,29.20
2019-01-27T08:41:48.818Z,29.20
2019-01-27T08:44:42.962Z,29.20
2019-01-27T08:47:13.337Z,29.20
2019-01-27T08:49:44.613Z,29.20
2019-01-27T08:52:14.826Z,29.10
2019-01-27T08:54:45.977Z,29.10
2019-01-27T08:57:16.458Z,29.10
2019-01-27T08:59:47.556Z,29.00
2019-01-27T09:02:37.203Z,29.10
2019-01-27T09:05:18.614Z,29.10
2019-01-27T09:08:20.304Z,29.10
2019-01-27T09:11:04.830Z,29.10
2019-01-27T09:13:42.893Z,29.00
2019-01-27T09:16:37.032Z,29.10
2019-01-27T09:19:44.719Z,29.10
2019-01-27T09:22:34.297Z,29.10
2019-01-27T09:25:39.039Z,29.10
2019-01-27T09:28:26.684Z,29.10
2019-01-27T09:31:14.669Z,29.10
2019-01-27T09:34:13.266Z,29.10
2019-01-27T09:37:06.151Z,29.20
2019-01-27T09:40:14.250Z,29.20
2019-01-27T09:42:59.894Z,29.20
2019-01-27T09:45:44.185Z,29.20
2019-01-27T09:48:32.706Z,29.10
2019-01-27T09:51:32.655Z,29.10
2019-01-27T09:54:12.242Z,29.10
2019-01-27T09:57:00.841Z,29.10
2019-01-27T09:59:43.403Z,29.20
2019-01-27T10:02:42.143Z,29.10
2019-01-27T10:05:21.242Z,29.10
2019-01-27T10:08:09.722Z,29.20
2019-01-27T10:10:54.837Z,29.20
2019-01-27T10:13:59.571Z,29.30
2019-01-27T10:16:37.926Z,29.30
2019-01-27T10:19:19.242Z,29.30
2019-01-27T10:21:59.282Z,29.40
2019-01-27T10:24:55.554Z,29.40
2019-01-27T10:27:48.258Z,29.50
2019-01-27T10:30:54.718Z,29.50
2019-01-27T10:33:42.847Z,29.60
2019-01-27T10:36:25.958Z,29.60
2019-01-27T10:39:09.942Z,29.60
2019-01-27T10:41:48.528Z,29.70
2019-01-27T10:44:29.855Z,29.60
2019-01-27T10:47:15.658Z,29.70
2019-01-27T10:50:08.381Z,29.70
2019-01-27T10:53:07.356Z,29.70
2019-01-27T10:56:02.956Z,29.70
2019-01-27T10:58:55.289Z,29.70
2019-01-27T11:01:52.823Z,29.70
2019-01-27T11:04:42.085Z,29.80
2019-01-27T11:07:29.429Z,29.70
2019-01-27T11:10:28.130Z,29.80
2019-01-27T11:13:23.591Z,29.80
2019-01-27T11:16:02.493Z,29.80
2019-01-27T11:18:51.693Z,29.80
2019-01-27T11:21:51.089Z,29.80
2019-01-27T11:24:28.488Z,29.90
2019-01-27T11:27:13.337Z,30.00
2019-01-27T11:29:56.271Z,30.00
2019-01-27T11:33:03.469Z,30.00
2019-01-27T11:35:53.351Z,30.00
2019-01-27T11:38:54.616Z,30.00
2019-01-27T11:41:40.391Z,30.00
2019-01-27T11:44:24.898Z,30.00
2019-01-27T11:47:21.483Z,30.00
2019-01-27T11:49:58.383Z,30.00
2019-01-27T11:52:32.971Z,30.10
2019-01-27T11:55:03.470Z,30.10
2019-01-27T11:57:34.769Z,30.10
2019-01-27T12:00:07.117Z,30.20
2019-01-27T12:02:37.959Z,30.20
2019-01-27T12:05:09.959Z,30.10
2019-01-27T12:07:41.166Z,30.20
2019-01-27T12:10:14.628Z,30.10
2019-01-27T12:12:45.565Z,30.20
2019-01-27T12:15:18.502Z,30.20
2019-01-27T12:17:49.432Z,30.10
2019-01-27T12:20:20.573Z,30.10
2019-01-27T12:22:51.951Z,30.10
2019-01-27T12:25:22.809Z,30.10
2019-01-27T12:27:54.013Z,30.20
2019-01-27T12:30:25.787Z,30.30
2019-01-27T12:32:56.935Z,30.30
2019-01-27T12:35:28.374Z,30.30
2019-01-27T12:37:59.535Z,30.30
2019-01-27T12:40:30.638Z,30.30
2019-01-27T12:43:01.453Z,30.40
2019-01-27T12:45:32.926Z,30.30
2019-01-27T12:48:04.392Z,30.40
2019-01-27T12:50:35.870Z,30.30
2019-01-27T12:53:06.990Z,30.30
2019-01-27T12:55:38.546Z,30.30
2019-01-27T12:58:09.599Z,30.30
2019-01-27T13:00:44.296Z,30.30
2019-01-27T13:03:15.560Z,30.30
2019-01-27T13:05:47.620Z,30.40
2019-01-27T13:08:19.679Z,30.40
2019-01-27T13:10:51.122Z,30.40
2019-01-27T13:13:22.097Z,30.40
2019-01-27T13:15:52.879Z,30.50
2019-01-27T13:18:23.634Z,30.50
2019-01-27T13:20:54.788Z,30.50
2019-01-27T13:23:25.627Z,30.50
2019-01-27T13:25:57.077Z,30.50
2019-01-27T13:28:28.268Z,30.60
2019-01-27T13:30:59.745Z,30.50
2019-01-27T13:33:31.503Z,30.60
2019-01-27T13:36:02.879Z,30.60
2019-01-27T13:38:34.038Z,30.60
2019-01-27T13:41:05.170Z,30.60
2019-01-27T13:43:36.330Z,30.60
2019-01-27T13:46:08.063Z,30.60
2019-01-27T13:48:39.214Z,30.70
2019-01-27T13:51:10.383Z,30.70
2019-01-27T13:53:42.110Z,30.70
2019-01-27T13:56:13.248Z,30.70
2019-01-27T13:58:55.140Z,30.70
2019-01-27T14:01:26.298Z,30.70
2019-01-27T14:03:57.530Z,30.80
2019-01-27T14:06:28.994Z,30.80
2019-01-27T14:09:00.440Z,30.80
2019-01-27T14:11:33.124Z,30.80
2019-01-27T14:14:04.271Z,30.80
2019-01-27T14:16:35.408Z,31.00
2019-01-27T14:19:07.844Z,30.90
2019-01-27T14:21:38.876Z,30.90
2019-01-27T14:24:09.714Z,30.90
2019-01-27T14:26:41.206Z,30.90
2019-01-27T14:29:12.405Z,30.90
2019-01-27T14:31:44.125Z,30.90
2019-01-27T14:34:15.553Z,30.90
2019-01-27T14:36:46.622Z,30.90
2019-01-27T14:39:18.183Z,31.00
2019-01-27T14:41:49.799Z,31.00
2019-01-27T14:44:21.644Z,31.00
2019-01-27T14:46:52.461Z,31.00
2019-01-27T14:49:23.678Z,31.00
2019-01-27T14:51:55.401Z,31.00
2019-01-27T14:54:26.140Z,31.00
2019-01-27T14:56:57.070Z,31.00
2019-01-27T14:59:28.112Z,31.10
2019-01-27T15:01:59.001Z,31.00
2019-01-27T15:04:30.314Z,31.00
2019-01-27T15:07:01.659Z,31.00
2019-01-27T15:09:33.287Z,30.90
2019-01-27T15:12:03.936Z,31.00
2019-01-27T15:14:34.480Z,30.90
2019-01-27T15:17:05.301Z,30.80
2019-01-27T15:19:36.173Z,30.80
2019-01-27T15:22:07.606Z,30.80
2019-01-27T15:24:39.069Z,30.70
2019-01-27T15:27:11.113Z,30.80
2019-01-27T15:29:42.225Z,30.90
2019-01-27T15:32:13.090Z,30.90
2019-01-27T15:34:44.085Z,31.00
2019-01-27T15:37:16.298Z,31.10
2019-01-27T15:39:47.162Z,31.30
2019-01-27T15:42:18.583Z,31.30
2019-01-27T15:44:50.055Z,31.40
2019-01-27T15:47:21.221Z,31.50
2019-01-27T15:49:52.363Z,31.60
2019-01-27T15:52:23.461Z,31.60
2019-01-27T15:54:54.633Z,31.60
2019-01-27T15:57:25.712Z,31.60
2019-01-27T15:59:58.943Z,31.60
2019-01-27T16:02:30.188Z,31.70
2019-01-27T16:05:01.164Z,31.70
2019-01-27T16:07:32.178Z,31.60
2019-01-27T16:10:03.790Z,31.60
2019-01-27T16:12:35.091Z,31.60
2019-01-27T16:15:09.891Z,31.60
2019-01-27T16:17:41.349Z,31.70
2019-01-27T16:20:13.052Z,31.60
2019-01-27T16:22:49.387Z,32.30
2019-01-27T16:25:20.622Z,31.60
2019-01-27T16:27:51.785Z,31.60
2019-01-27T16:30:32.444Z,31.60
2019-01-27T16:33:08.509Z,31.60
2019-01-27T16:35:39.826Z,31.50
2019-01-27T16:38:11.439Z,31.50
2019-01-27T16:40:42.546Z,31.40
2019-01-27T16:43:13.691Z,31.30
2019-01-27T16:45:45.154Z,31.20
2019-01-27T16:48:16.425Z,31.20
2019-01-27T16:50:47.153Z,31.20
2019-01-27T16:53:19.864Z,31.10
2019-01-27T16:55:50.870Z,31.10
2019-01-27T16:58:21.541Z,31.00
2019-01-27T17:00:52.840Z,31.00
2019-01-27T17:03:23.550Z,31.00
2019-01-27T17:05:54.318Z,30.90
2019-01-27T17:08:25.220Z,30.90
2019-01-27T17:10:55.555Z,30.90
2019-01-27T17:13:26.271Z,30.90
2019-01-27T17:15:56.625Z,30.90
2019-01-27T17:18:27.880Z,30.80
2019-01-27T17:20:58.901Z,30.70
2019-01-27T17:23:29.932Z,30.70
2019-01-27T17:26:01.106Z,30.70
2019-01-27T17:28:33.010Z,30.70
2019-01-27T17:31:04.694Z,30.70
2019-01-27T17:33:36.206Z,30.70
2019-01-27T17:36:08.807Z,30.60
2019-01-27T17:38:41.007Z,30.70
2019-01-27T17:41:13.056Z,30.60
2019-01-27T17:43:43.362Z,30.60
2019-01-27T17:46:14.221Z,30.60
2019-01-27T17:48:44.877Z,30.50
2019-01-27T17:51:15.612Z,30.50
2019-01-27T17:53:51.173Z,30.50
2019-01-27T17:56:21.817Z,30.50
2019-01-27T17:59:29.903Z,30.50
2019-01-27T18:02:25.590Z,30.60
2019-01-27T18:05:08.302Z,31.20
2019-01-27T18:07:51.127Z,30.50
2019-01-27T18:10:45.771Z,30.50
2019-01-27T18:13:25.264Z,30.50
2019-01-27T18:15:55.939Z,30.50
2019-01-27T18:18:26.998Z,30.40
2019-01-27T18:20:59.995Z,30.40
2019-01-27T18:23:31.368Z,30.50
2019-01-27T18:26:01.583Z,30.40
2019-01-27T18:28:32.347Z,30.40
2019-01-27T18:31:03.054Z,30.40
2019-01-27T18:33:34.069Z,31.00
2019-01-27T18:36:04.740Z,30.40
2019-01-27T18:38:35.691Z,30.40
2019-01-27T18:41:06.901Z,30.30
2019-01-27T18:43:37.871Z,30.30
2019-01-27T18:46:08.469Z,30.30
2019-01-27T18:48:39.058Z,30.30
2019-01-27T18:51:09.411Z,30.30
2019-01-27T18:54:17.538Z,30.20
2019-01-27T18:57:06.595Z,30.20
2019-01-27T18:59:54.976Z,30.20
2019-01-27T19:02:40.915Z,30.20
2019-01-27T19:05:36.816Z,30.20
2019-01-27T19:08:21.348Z,30.20
2019-01-27T19:11:14.039Z,30.00
2019-01-27T19:13:52.063Z,30.20
2019-01-27T19:16:31.910Z,30.20
2019-01-27T19:19:21.254Z,30.20
2019-01-27T19:22:09.456Z,30.20
2019-01-27T19:25:01.395Z,30.20
2019-01-27T19:27:55.270Z,30.20
2019-01-27T19:30:47.152Z,30.20
2019-01-27T19:33:39.503Z,30.20
2019-01-27T19:36:18.333Z,30.20
2019-01-27T19:39:06.909Z,30.10
2019-01-27T19:41:46.778Z,30.10
2019-01-27T19:44:28.366Z,30.10
2019-01-27T19:47:17.632Z,30.10
2019-01-27T19:50:08.781Z,30.10
2019-01-27T19:52:59.555Z,30.10
2019-01-27T19:55:46.238Z,30.10
2019-01-27T19:58:26.694Z,30.10
2019-01-27T20:01:28.890Z,30.10
2019-01-27T20:04:15.281Z,30.20
2019-01-27T20:07:04.714Z,30.10
2019-01-27T20:09:45.734Z,30.00
2019-01-27T20:12:39.195Z,30.10
2019-01-27T20:15:34.203Z,30.00
2019-01-27T20:18:15.414Z,30.00
2019-01-27T20:20:59.139Z,30.00
2019-01-27T20:23:45.146Z,30.00
2019-01-27T20:26:35.508Z,30.00
2019-01-27T20:29:19.555Z,30.00
2019-01-27T20:32:11.849Z,30.00
2019-01-27T20:34:57.574Z,30.00
2019-01-27T20:37:56.419Z,30.00
2019-01-27T20:41:04.292Z,30.10
2019-01-27T20:44:00.470Z,30.00
2019-01-27T20:46:50.305Z,30.00
2019-01-27T20:49:38.978Z,30.00
2019-01-27T20:52:15.677Z,30.00
2019-01-27T20:55:05.275Z,30.00
2019-01-27T20:57:44.777Z,30.00
2019-01-27T21:00:35.197Z,30.00
2019-01-27T21:03:24.056Z,30.00
2019-01-27T21:06:03.152Z,30.00
2019-01-27T21:08:45.292Z,29.90
2019-01-27T21:11:33.730Z,30.00
2019-01-27T21:14:20.731Z,29.90
2019-01-27T21:17:09.113Z,29.90
2019-01-27T21:19:52.047Z,30.00
2019-01-27T21:22:24.103Z,29.90
2019-01-27T21:24:55.943Z,29.90
2019-01-27T21:27:27.507Z,29.90
2019-01-27T21:30:00.103Z,29.90
2019-01-27T21:32:31.649Z,29.90
2019-01-27T21:35:03.311Z,29.90
2019-01-27T21:37:35.775Z,29.90
2019-01-27T21:40:18.967Z,29.90
2019-01-27T21:42:50.365Z,29.80
2019-01-27T21:45:23.022Z,29.80
2019-01-27T21:47:54.399Z,29.80
2019-01-27T21:50:25.512Z,29.80
2019-01-27T21:52:56.786Z,29.80
2019-01-27T21:55:30.015Z,29.80
2019-01-27T21:58:01.425Z,29.80
2019-01-27T22:00:34.860Z,29.80
2019-01-27T22:03:06.058Z,29.80
2019-01-27T22:05:37.327Z,29.80
2019-01-27T22:08:09.375Z,29.80
2019-01-27T22:10:40.198Z,29.80
2019-01-27T22:13:11.809Z,29.80
2019-01-27T22:15:50.645Z,29.90
2019-01-27T22:18:19.874Z,29.80
2019-01-27T22:20:51.217Z,29.80
2019-01-27T22:23:21.578Z,29.80
2019-01-27T22:25:52.798Z,29.80
2019-01-27T22:28:23.118Z,29.80
2019-01-27T22:30:53.946Z,29.80
2019-01-27T22:33:24.907Z,29.80
2019-01-27T22:35:55.839Z,29.80
2019-01-27T22:38:26.351Z,29.80
2019-01-27T22:40:57.841Z,29.80
2019-01-27T22:43:28.529Z,29.80
2019-01-27T22:45:59.371Z,29.80
2019-01-27T22:48:29.877Z,29.80
2019-01-27T22:51:00.978Z,29.80
2019-01-27T22:53:31.567Z,29.80
2019-01-27T22:56:02.525Z,29.80
2019-01-27T22:58:32.759Z,29.80
2019-01-27T23:01:16.413Z,29.80
2019-01-27T23:03:50.638Z,29.80
2019-01-27T23:06:21.606Z,29.80
2019-01-27T23:08:52.250Z,29.80
2019-01-27T23:11:23.545Z,29.80
2019-01-27T23:13:53.830Z,29.80
2019-01-27T23:16:24.881Z,29.80
2019-01-27T23:18:55.585Z,29.80
2019-01-27T23:21:26.598Z,29.80
2019-01-27T23:23:56.914Z,29.80
2019-01-27T23:26:27.931Z,29.80
2019-01-27T23:28:58.256Z,29.80
2019-01-27T23:31:29.441Z,29.80
2019-01-27T23:34:01.011Z,29.90
2019-01-27T23:36:32.354Z,29.80
2019-01-27T23:39:02.685Z,30.20
2019-01-27T23:41:34.882Z,29.90
2019-01-27T23:44:05.290Z,29.90
2019-01-27T23:46:38.886Z,29.80
2019-01-27T23:49:12.305Z,29.80
2019-01-27T23:51:44.220Z,29.80
2019-01-27T23:54:14.724Z,29.90
2019-01-27T23:56:45.939Z,29.80
2019-01-27T23:59:16.246Z,29.90
